aviador You're here:

KHEY Decoded Metar

in _UNIDENTIFIED
Report Time2018-01-17 19:58:00
UTC Time2018-01-17 20:21:14
Flight Rules vfr VFR
Wind320° at 13 Gusting to 19 kt
W.Decomp.*RWY 35: 11.6 kt HW 5.9 kt LCW
W.Rank320° ranks 6
Current wind is above 320° avg. (6.0)
Visibility9999 m
Phenomena:N/A
Clouds:N/A
Expected CloudBase > 5,200 ft AGL from Temp-Dew spread
CeilingNone
Temp-1°C (ISA -15)
Dew Point-14°C (37% RH)
AAT-9.0°C
QNH1030 hPa
Density Alt-2,110 ft
Elevation318 ft
Report Wrong Elevation
Raw Report
METAR KHEY 171958Z AUTO 32013G19KT 10SM CLR M01/M14 A3043 RMK AO2 SLP310
T10131137 FZRANO=

Extra information for KHEY:More info

Metar Taf Metar & Taf Last 4 Metars F.Rules Stats Wind Profile Meteogram Temp Stats Metar ALERT Operation Metar Decoded Social comments